createdAt,value
2023-04-04T00:00:44.203Z,33.75
2023-04-04T00:03:15.630Z,41.50
2023-04-04T00:05:43.718Z,40.00
2023-04-04T00:08:11.302Z,33.25
2023-04-04T00:10:42.929Z,42.00
2023-04-04T00:13:11.398Z,35.50
2023-04-04T00:15:39.378Z,26.00
2023-04-04T00:18:07.606Z,36.00
2023-04-04T00:20:35.785Z,44.00
2023-04-04T00:23:03.303Z,39.25
2023-04-04T00:25:31.744Z,34.75
2023-04-04T00:28:01.196Z,40.00
2023-04-04T00:30:30.226Z,33.00
2023-04-04T00:32:58.422Z,38.50
2023-04-04T00:35:26.077Z,38.00
2023-04-04T00:37:53.728Z,34.75
2023-04-04T00:40:21.120Z,36.75
2023-04-04T00:42:48.539Z,37.25
2023-04-04T00:45:16.472Z,38.50
2023-04-04T00:47:44.500Z,36.50
2023-04-04T00:50:12.252Z,40.00
2023-04-04T00:52:39.623Z,38.50
2023-04-04T00:55:08.165Z,36.50
2023-04-04T00:57:36.170Z,36.00
2023-04-04T01:00:06.655Z,36.75
2023-04-04T01:02:35.867Z,41.25
2023-04-04T01:05:04.607Z,39.00
2023-04-04T01:07:39.918Z,36.00
2023-04-04T01:10:08.381Z,40.75
2023-04-04T01:12:36.401Z,38.25
2023-04-04T01:15:04.082Z,38.25
2023-04-04T01:17:33.332Z,41.25
2023-04-04T01:20:16.277Z,41.50
2023-04-04T01:22:48.455Z,45.25
2023-04-04T01:25:18.176Z,28.50
2023-04-04T01:27:46.464Z,41.25
2023-04-04T01:30:17.432Z,47.75
2023-04-04T01:33:02.309Z,45.75
2023-04-04T01:35:58.173Z,38.50
2023-04-04T01:38:39.345Z,37.00
2023-04-04T01:41:09.944Z,42.50
2023-04-04T01:43:37.665Z,38.50
2023-04-04T01:46:06.197Z,34.50
2023-04-04T01:48:33.639Z,45.25
2023-04-04T01:51:02.620Z,45.25
2023-04-04T01:53:30.135Z,39.25
2023-04-04T01:55:57.916Z,34.00
2023-04-04T01:58:26.270Z,46.00
2023-04-04T02:00:53.910Z,35.50
2023-04-04T02:03:21.385Z,36.25
2023-04-04T02:05:48.985Z,33.75
2023-04-04T02:08:17.299Z,40.75
2023-04-04T02:10:44.641Z,48.25
2023-04-04T02:13:12.313Z,34.50
2023-04-04T02:15:59.671Z,39.50
2023-04-04T02:18:27.107Z,42.00
2023-04-04T02:20:58.268Z,38.50
2023-04-04T02:23:25.872Z,39.50
2023-04-04T02:25:53.473Z,38.25
2023-04-04T02:28:23.256Z,50.50
2023-04-04T02:30:50.885Z,41.75
2023-04-04T02:33:20.790Z,40.50
2023-04-04T02:35:48.193Z,38.75
2023-04-04T02:38:15.694Z,42.00
2023-04-04T02:40:45.930Z,41.25
2023-04-04T02:43:13.438Z,49.50
2023-04-04T02:45:40.865Z,44.25
2023-04-04T02:48:10.765Z,33.75
2023-04-04T02:50:39.488Z,42.50
2023-04-04T02:53:07.255Z,40.25
2023-04-04T02:55:34.839Z,19.25
2023-04-04T02:58:02.368Z,45.00
2023-04-04T03:00:30.191Z,54.25
2023-04-04T03:02:58.571Z,49.75
2023-04-04T03:05:27.623Z,44.50
2023-04-04T03:07:57.914Z,49.25
2023-04-04T03:10:27.276Z,37.75
2023-04-04T03:12:54.656Z,51.00
2023-04-04T03:15:22.833Z,41.00
2023-04-04T03:17:51.921Z,44.75
2023-04-04T03:20:19.784Z,51.25
2023-04-04T03:22:48.053Z,43.75
2023-04-04T03:25:16.300Z,82.50
2023-04-04T03:27:45.613Z,49.75
2023-04-04T03:30:13.426Z,59.00
2023-04-04T03:32:41.734Z,56.25
2023-04-04T03:35:09.359Z,55.00
2023-04-04T03:37:40.346Z,57.00
2023-04-04T03:40:09.550Z,53.25
2023-04-04T03:42:36.962Z,48.50
2023-04-04T03:45:04.630Z,56.75
2023-04-04T03:47:32.160Z,51.25
2023-04-04T03:50:02.510Z,57.75
2023-04-04T03:52:30.258Z,45.50
2023-04-04T03:54:57.697Z,50.25
2023-04-04T03:57:27.326Z,59.25
2023-04-04T03:59:54.920Z,53.50
2023-04-04T04:02:26.261Z,53.25
2023-04-04T04:04:53.632Z,55.00
2023-04-04T04:07:21.617Z,59.50
2023-04-04T04:09:49.046Z,64.75
2023-04-04T04:12:16.598Z,66.50
2023-04-04T04:14:44.181Z,62.50
2023-04-04T04:17:11.954Z,52.25
2023-04-04T04:19:39.824Z,47.75
2023-04-04T04:22:07.214Z,52.50
2023-04-04T04:24:34.879Z,52.50
2023-04-04T04:27:02.342Z,57.00
2023-04-04T04:29:30.928Z,54.25
2023-04-04T04:31:59.090Z,52.00
2023-04-04T04:34:26.544Z,57.75
2023-04-04T04:36:59.489Z,57.50
2023-04-04T04:39:27.395Z,54.50
2023-04-04T04:41:54.895Z,62.75
2023-04-04T04:44:24.669Z,67.50
2023-04-04T04:46:52.236Z,66.25
2023-04-04T04:49:22.971Z,54.50
2023-04-04T04:51:50.653Z,55.25
2023-04-04T04:54:17.986Z,53.00
2023-04-04T04:56:45.690Z,56.25
2023-04-04T04:59:15.156Z,48.50
2023-04-04T05:01:43.929Z,52.00
2023-04-04T05:04:12.158Z,60.25
2023-04-04T05:06:39.591Z,57.50
2023-04-04T05:09:07.207Z,62.75
2023-04-04T05:11:34.908Z,50.25
2023-04-04T05:14:02.273Z,55.25
2023-04-04T05:16:30.043Z,49.25
2023-04-04T05:18:58.173Z,55.00
2023-04-04T05:21:25.515Z,54.00
2023-04-04T05:23:53.001Z,49.00
2023-04-04T05:26:20.428Z,55.75
2023-04-04T05:28:48.027Z,60.50
2023-04-04T05:31:15.352Z,55.50
2023-04-04T05:33:45.775Z,48.50
2023-04-04T05:36:13.608Z,61.25
2023-04-04T05:38:43.493Z,63.00
2023-04-04T05:41:11.365Z,63.00
2023-04-04T05:43:39.307Z,55.50
2023-04-04T05:46:06.812Z,49.00
2023-04-04T05:48:35.841Z,56.00
2023-04-04T05:51:03.484Z,54.00
2023-04-04T05:53:31.080Z,37.50
2023-04-04T05:55:58.948Z,53.50
2023-04-04T05:58:28.140Z,47.25
2023-04-04T06:00:55.969Z,46.75
2023-04-04T06:03:24.575Z,48.25
2023-04-04T06:05:53.139Z,54.00
2023-04-04T06:08:21.322Z,49.75
2023-04-04T06:10:48.875Z,46.00
2023-04-04T06:13:16.787Z,50.25
2023-04-04T06:15:44.934Z,52.25
2023-04-04T06:18:12.769Z,49.25
2023-04-04T06:20:40.494Z,45.75
2023-04-04T06:23:10.107Z,48.00
2023-04-04T06:25:37.995Z,52.75
2023-04-04T06:28:05.860Z,54.75
2023-04-04T06:30:36.310Z,53.00
2023-04-04T06:33:06.944Z,49.75
2023-04-04T06:35:35.206Z,54.00
2023-04-04T06:38:04.319Z,44.50
2023-04-04T06:40:34.211Z,52.75
2023-04-04T06:43:01.962Z,46.00
2023-04-04T06:45:29.682Z,53.00
2023-04-04T06:47:57.825Z,52.00
2023-04-04T06:50:25.786Z,37.50
2023-04-04T06:52:53.552Z,39.75
2023-04-04T06:55:22.728Z,44.25
2023-04-04T06:57:52.386Z,40.50
2023-04-04T07:00:20.208Z,39.00
2023-04-04T07:02:48.220Z,46.00
2023-04-04T07:05:18.208Z,35.33
2023-04-04T07:07:47.081Z,31.33
2023-04-04T07:10:15.128Z,35.00
2023-04-04T07:12:43.895Z,35.00
2023-04-04T07:15:11.810Z,31.33
2023-04-04T07:17:41.212Z,39.67
2023-04-04T07:20:09.407Z,50.00
2023-04-04T07:22:41.051Z,41.00
2023-04-04T07:25:09.769Z,37.67
2023-04-04T07:27:37.216Z,30.25
2023-04-04T07:30:05.488Z,31.00
2023-04-04T07:33:02.861Z,31.33
2023-04-04T07:35:30.516Z,28.75
2023-04-04T07:37:58.138Z,25.00
2023-04-04T07:40:27.344Z,27.75
2023-04-04T07:42:54.993Z,35.00
2023-04-04T07:45:22.769Z,25.25
2023-04-04T07:47:51.159Z,27.25
2023-04-04T07:50:20.997Z,28.00
2023-04-04T07:52:51.502Z,25.75
2023-04-04T07:55:19.847Z,31.75
2023-04-04T07:57:47.732Z,38.00
2023-04-04T08:00:21.572Z,22.50
2023-04-04T08:03:09.061Z,25.50
2023-04-04T08:05:37.187Z,20.75
2023-04-04T08:08:04.601Z,19.00
2023-04-04T08:10:40.912Z,19.00
2023-04-04T08:13:10.205Z,18.50
2023-04-04T08:15:38.552Z,23.75
2023-04-04T08:18:08.450Z,18.25
2023-04-04T08:20:35.906Z,19.50
2023-04-04T08:23:03.389Z,21.25
2023-04-04T08:25:31.038Z,22.00
2023-04-04T08:27:58.898Z,18.75
2023-04-04T08:30:26.447Z,19.25
2023-04-04T08:33:12.767Z,26.50
2023-04-04T08:35:40.449Z,28.25
2023-04-04T08:38:08.856Z,16.00
2023-04-04T08:40:38.613Z,19.75
2023-04-04T08:43:10.586Z,22.00
2023-04-04T08:45:43.380Z,25.75
2023-04-04T08:48:18.000Z,12.50
2023-04-04T08:50:46.996Z,20.50
2023-04-04T08:53:16.149Z,15.50
2023-04-04T08:55:44.258Z,13.50
2023-04-04T08:58:11.678Z,15.50
2023-04-04T09:00:40.697Z,17.25
2023-04-04T09:03:27.586Z,20.00
2023-04-04T09:05:56.839Z,17.75
2023-04-04T09:08:25.009Z,16.75
2023-04-04T09:10:53.253Z,15.25
2023-04-04T09:13:21.106Z,20.75
2023-04-04T09:15:52.134Z,14.00
2023-04-04T09:18:20.109Z,17.75
2023-04-04T09:20:50.656Z,18.50
2023-04-04T09:23:20.931Z,38.25
2023-04-04T09:28:24.164Z,34.25
2023-04-04T09:30:52.685Z,35.50
2023-04-04T09:33:24.076Z,55.00
2023-04-04T09:36:02.765Z,63.33
2023-04-04T09:38:33.730Z,34.25
2023-04-04T09:41:01.441Z,37.50
2023-04-04T09:43:31.071Z,25.25
2023-04-04T09:46:00.533Z,25.50
2023-04-04T09:48:32.438Z,29.25
2023-04-04T09:51:00.172Z,20.25
2023-04-04T09:53:28.449Z,22.50
2023-04-04T09:55:57.575Z,24.75
2023-04-04T09:58:28.472Z,21.00
2023-04-04T10:00:59.257Z,19.25
2023-04-04T10:03:28.683Z,27.75
2023-04-04T10:06:07.588Z,28.75
2023-04-04T10:08:44.121Z,23.50
2023-04-04T10:11:12.687Z,21.00
2023-04-04T10:13:42.185Z,17.50
2023-04-04T10:16:11.184Z,19.75
2023-04-04T10:18:39.895Z,20.25
2023-04-04T10:23:42.519Z,19.00
2023-04-04T10:26:10.195Z,14.75
2023-04-04T10:28:44.464Z,14.75
2023-04-04T10:31:23.718Z,14.75
2023-04-04T10:34:09.898Z,12.50
2023-04-04T10:36:49.150Z,8.80
2023-04-04T10:39:53.835Z,14.60
2023-04-04T10:42:23.599Z,10.75
2023-04-04T10:44:51.402Z,11.75
2023-04-04T10:47:26.365Z,8.00
2023-04-04T10:49:56.238Z,11.75
2023-04-04T10:52:28.778Z,14.50
2023-04-04T10:55:00.331Z,10.40
2023-04-04T10:57:29.817Z,8.20
2023-04-04T11:00:10.822Z,8.80
2023-04-04T11:02:59.600Z,8.00
2023-04-04T11:05:42.088Z,7.80
2023-04-04T11:08:14.338Z,11.60
2023-04-04T11:10:44.748Z,11.40
2023-04-04T11:13:23.814Z,11.00
2023-04-04T11:15:52.941Z,13.20
2023-04-04T11:18:45.700Z,12.20
2023-04-04T11:21:30.086Z,14.20
2023-04-04T11:24:06.735Z,9.60
2023-04-04T11:26:36.446Z,13.60
2023-04-04T11:29:08.173Z,11.80
2023-04-04T11:31:45.856Z,8.80
2023-04-04T11:34:15.285Z,5.40
2023-04-04T11:36:44.938Z,10.60
2023-04-04T11:39:24.913Z,12.60
2023-04-04T11:42:14.083Z,11.20
2023-04-04T11:44:55.970Z,10.80
2023-04-04T11:47:25.212Z,9.40
2023-04-04T11:49:54.239Z,7.80
2023-04-04T11:52:23.913Z,10.60
2023-04-04T11:54:53.390Z,13.20
2023-04-04T11:57:22.545Z,10.80
2023-04-04T11:59:51.903Z,6.80
2023-04-04T12:02:27.448Z,8.20
2023-04-04T12:04:56.224Z,7.00
2023-04-04T12:07:28.885Z,8.80
2023-04-04T12:09:57.903Z,8.20
2023-04-04T12:12:28.444Z,4.00
2023-04-04T12:15:06.240Z,7.00
2023-04-04T12:17:44.199Z,8.60
2023-04-04T12:20:11.741Z,7.40
2023-04-04T12:22:40.583Z,8.60
2023-04-04T12:25:08.698Z,8.60
2023-04-04T12:27:36.978Z,18.40
2023-04-04T12:30:07.942Z,13.00
2023-04-04T12:32:35.611Z,8.80
2023-04-04T12:35:03.893Z,9.60
2023-04-04T12:37:33.278Z,10.80
2023-04-04T12:40:02.487Z,10.00
2023-04-04T12:42:32.044Z,10.80
2023-04-04T12:45:04.109Z,12.80
2023-04-04T12:47:32.481Z,12.40
2023-04-04T12:49:59.909Z,9.20
2023-04-04T12:52:32.385Z,10.20
2023-04-04T12:55:09.463Z,8.60
2023-04-04T12:57:40.163Z,10.40
2023-04-04T13:00:09.176Z,14.80
2023-04-04T13:02:38.923Z,15.40
2023-04-04T13:05:07.924Z,11.80
2023-04-04T13:07:44.528Z,14.60
2023-04-04T13:10:16.353Z,10.40
2023-04-04T13:13:01.185Z,15.20
2023-04-04T13:15:49.347Z,14.40
2023-04-04T13:18:21.295Z,9.20
2023-04-04T13:20:49.795Z,11.80
2023-04-04T13:23:18.477Z,10.00
2023-04-04T13:25:46.781Z,10.20
2023-04-04T13:28:15.806Z,7.80
2023-04-04T13:30:49.579Z,9.80
2023-04-04T13:33:18.835Z,9.20
2023-04-04T13:35:46.759Z,13.80
2023-04-04T13:38:16.668Z,9.00
2023-04-04T13:40:44.608Z,10.80
2023-04-04T13:43:13.047Z,8.00
2023-04-04T13:45:43.503Z,5.80
2023-04-04T13:48:11.520Z,5.40
2023-04-04T13:50:43.611Z,8.00
2023-04-04T13:53:11.911Z,10.80
2023-04-04T13:56:01.432Z,7.80
2023-04-04T13:58:33.328Z,8.60
2023-04-04T14:01:07.076Z,7.60
2023-04-04T14:03:37.172Z,8.00
2023-04-04T14:06:10.483Z,8.40
2023-04-04T14:08:39.059Z,18.00
2023-04-04T14:11:06.818Z,17.00
2023-04-04T14:13:34.536Z,12.50
2023-04-04T14:16:02.167Z,14.25
2023-04-04T14:18:31.015Z,18.75
2023-04-04T14:20:58.401Z,45.00
2023-04-04T14:23:27.287Z,48.75
2023-04-04T14:25:55.166Z,23.50
2023-04-04T14:28:22.601Z,18.25
2023-04-04T14:30:51.677Z,19.00
2023-04-04T14:33:19.902Z,14.50
2023-04-04T14:35:47.386Z,17.00
2023-04-04T14:38:14.954Z,14.00
2023-04-04T14:40:48.427Z,13.25
2023-04-04T14:43:16.218Z,10.00
2023-04-04T14:45:48.608Z,9.50
2023-04-04T14:48:16.728Z,14.25
2023-04-04T14:50:45.017Z,14.75
2023-04-04T14:53:13.181Z,9.75
2023-04-04T14:55:41.757Z,10.00
2023-04-04T14:58:12.585Z,12.50
2023-04-04T15:00:40.816Z,18.50
2023-04-04T15:03:12.714Z,14.00
2023-04-04T15:05:42.665Z,10.00
2023-04-04T15:08:10.484Z,16.25
2023-04-04T15:10:38.286Z,14.50
2023-04-04T15:13:13.990Z,13.75
2023-04-04T15:15:41.764Z,13.50
2023-04-04T15:18:09.579Z,13.50
2023-04-04T15:20:42.322Z,16.00
2023-04-04T15:23:09.849Z,16.00
2023-04-04T15:25:37.307Z,12.25
2023-04-04T15:28:04.977Z,14.50
2023-04-04T15:30:33.425Z,15.25
2023-04-04T15:33:01.624Z,13.50
2023-04-04T15:35:29.365Z,15.50
2023-04-04T15:37:57.131Z,19.00
2023-04-04T15:40:24.546Z,23.25
2023-04-04T15:42:52.320Z,15.00
2023-04-04T15:45:20.982Z,16.75
2023-04-04T15:47:48.969Z,22.50
2023-04-04T15:50:16.501Z,16.00
2023-04-04T15:52:43.952Z,15.00
2023-04-04T15:55:14.484Z,18.75
2023-04-04T15:57:44.859Z,18.75
2023-04-04T16:00:14.047Z,24.25
2023-04-04T16:02:43.641Z,22.50
2023-04-04T16:05:11.593Z,22.50
2023-04-04T16:07:39.176Z,26.00
2023-04-04T16:10:08.796Z,26.25
2023-04-04T16:12:36.741Z,21.75
2023-04-04T16:15:06.164Z,20.25
2023-04-04T16:17:33.688Z,18.75
2023-04-04T16:20:01.226Z,17.50
2023-04-04T16:22:28.665Z,21.00
2023-04-04T16:24:56.049Z,27.75
2023-04-04T16:27:24.838Z,21.50
2023-04-04T16:29:55.559Z,16.75
2023-04-04T16:32:23.954Z,29.25
2023-04-04T16:34:51.373Z,28.25
2023-04-04T16:37:19.486Z,22.50
2023-04-04T16:39:48.246Z,38.50
2023-04-04T16:42:19.509Z,31.25
2023-04-04T16:44:49.088Z,34.25
2023-04-04T16:47:16.574Z,32.00
2023-04-04T16:49:44.186Z,22.25
2023-04-04T16:52:11.798Z,27.75
2023-04-04T16:54:39.373Z,28.00
2023-04-04T16:57:09.613Z,27.75
2023-04-04T16:59:37.456Z,32.50
2023-04-04T17:02:08.277Z,35.75
2023-04-04T17:04:41.122Z,29.50
2023-04-04T17:07:09.455Z,33.25
2023-04-04T17:09:37.145Z,33.25
2023-04-04T17:12:06.997Z,26.00
2023-04-04T17:14:40.104Z,26.25
2023-04-04T17:17:08.988Z,26.75
2023-04-04T17:19:37.390Z,23.75
2023-04-04T17:22:06.158Z,20.00
2023-04-04T17:24:33.657Z,19.00
2023-04-04T17:27:01.489Z,20.25
2023-04-04T17:29:30.300Z,20.75
2023-04-04T17:31:59.876Z,19.25
2023-04-04T17:34:27.459Z,22.75
2023-04-04T17:36:55.397Z,21.75
2023-04-04T17:39:22.910Z,29.25
2023-04-04T17:41:52.159Z,20.75
2023-04-04T17:44:20.642Z,27.00
2023-04-04T17:46:48.405Z,22.25
2023-04-04T17:49:20.579Z,23.50
2023-04-04T17:51:49.256Z,23.50
2023-04-04T17:54:17.544Z,21.50
2023-04-04T17:56:46.167Z,19.75
2023-04-04T17:59:14.871Z,20.75
2023-04-04T18:01:43.850Z,24.00
2023-04-04T18:04:11.310Z,25.00
2023-04-04T18:06:40.414Z,27.00
2023-04-04T18:09:10.432Z,24.50
2023-04-04T18:11:39.249Z,24.25
2023-04-04T18:14:07.020Z,30.50
2023-04-04T18:16:39.735Z,29.50
2023-04-04T18:19:10.127Z,19.50
2023-04-04T18:21:38.614Z,29.75
2023-04-04T18:24:11.903Z,23.00
2023-04-04T18:26:39.770Z,26.50
2023-04-04T18:29:07.336Z,20.75
2023-04-04T18:31:34.760Z,28.75
2023-04-04T18:34:02.536Z,25.50
2023-04-04T18:36:30.025Z,23.00
2023-04-04T18:38:57.389Z,20.50
2023-04-04T18:41:24.834Z,19.75
2023-04-04T18:43:52.291Z,24.00
2023-04-04T18:46:19.945Z,25.25
2023-04-04T18:48:47.634Z,28.25
2023-04-04T18:51:15.879Z,24.00
2023-04-04T18:53:47.117Z,21.75
2023-04-04T18:56:15.712Z,25.25
2023-04-04T18:58:43.504Z,20.25
2023-04-04T19:01:12.655Z,19.75
2023-04-04T19:03:47.646Z,21.50
2023-04-04T19:06:16.249Z,21.50
2023-04-04T19:08:44.584Z,20.00
2023-04-04T19:11:12.621Z,21.50
2023-04-04T19:13:40.120Z,16.00
2023-04-04T19:16:07.739Z,22.00
2023-04-04T19:18:35.307Z,20.75
2023-04-04T19:21:02.815Z,17.25
2023-04-04T19:23:30.866Z,22.00
2023-04-04T19:26:02.171Z,23.00
2023-04-04T19:28:33.532Z,19.25
2023-04-04T19:31:02.193Z,15.25
2023-04-04T19:33:33.292Z,21.75
2023-04-04T19:36:11.312Z,24.00
2023-04-04T19:38:42.797Z,19.50
2023-04-04T19:41:16.737Z,18.25
2023-04-04T19:43:47.118Z,22.00
2023-04-04T19:46:16.609Z,23.00
2023-04-04T19:48:49.006Z,17.50
2023-04-04T19:51:22.629Z,23.00
2023-04-04T19:53:58.896Z,18.50
2023-04-04T19:56:28.317Z,15.75
2023-04-04T19:59:06.173Z,21.25
2023-04-04T20:01:37.664Z,15.00
2023-04-04T20:04:10.160Z,17.75
2023-04-04T20:06:40.070Z,17.33
2023-04-04T20:09:12.922Z,20.75
2023-04-04T20:11:40.567Z,15.25
2023-04-04T20:14:10.292Z,17.75
2023-04-04T20:16:37.986Z,20.25
2023-04-04T20:19:08.786Z,14.25
2023-04-04T20:21:37.374Z,14.75
2023-04-04T20:24:10.073Z,20.75
2023-04-04T20:26:51.441Z,17.75
2023-04-04T20:29:22.094Z,13.25
2023-04-04T20:31:56.243Z,14.00
2023-04-04T20:34:29.527Z,18.50
2023-04-04T20:36:57.906Z,15.33
2023-04-04T20:39:58.735Z,12.00
2023-04-04T20:42:26.214Z,16.33
2023-04-04T20:45:06.422Z,16.00
2023-04-04T20:47:44.742Z,8.25
2023-04-04T20:50:19.064Z,14.00
2023-04-04T20:52:50.677Z,15.75
2023-04-04T20:55:22.846Z,14.75
2023-04-04T20:57:51.838Z,16.75
2023-04-04T21:00:26.761Z,19.25
2023-04-04T21:03:29.911Z,19.50
2023-04-04T21:06:17.013Z,12.25
2023-04-04T21:08:51.638Z,13.25
2023-04-04T21:11:30.130Z,17.75
2023-04-04T21:13:58.312Z,13.75
2023-04-04T21:16:27.536Z,15.75
2023-04-04T21:19:00.848Z,15.25
2023-04-04T21:21:29.557Z,10.75
2023-04-04T21:23:59.407Z,16.00
2023-04-04T21:26:32.972Z,17.75
2023-04-04T21:29:08.704Z,12.50
2023-04-04T21:31:41.283Z,12.00
2023-04-04T21:34:11.947Z,16.25
2023-04-04T21:36:41.407Z,12.75
2023-04-04T21:39:13.142Z,11.50
2023-04-04T21:41:43.040Z,14.00
2023-04-04T21:44:11.099Z,14.25
2023-04-04T21:46:40.526Z,14.50
2023-04-04T21:49:11.614Z,9.50
2023-04-04T21:51:40.737Z,18.50
2023-04-04T21:54:08.332Z,20.25
2023-04-04T21:56:38.553Z,15.75
2023-04-04T21:59:09.105Z,13.75
2023-04-04T22:01:37.598Z,21.25
2023-04-04T22:04:05.660Z,14.25
2023-04-04T22:06:33.128Z,17.75
2023-04-04T22:09:02.007Z,19.00
2023-04-04T22:11:30.875Z,19.75
2023-04-04T22:14:04.788Z,22.75
2023-04-04T22:16:37.018Z,22.75
2023-04-04T22:19:11.265Z,20.50
2023-04-04T22:21:39.589Z,18.50
2023-04-04T22:24:10.087Z,19.00
2023-04-04T22:26:41.752Z,13.25
2023-04-04T22:29:09.203Z,19.50
2023-04-04T22:31:37.925Z,17.00
2023-04-04T22:34:06.560Z,19.50
2023-04-04T22:36:34.653Z,17.00
2023-04-04T22:39:02.948Z,20.25
2023-04-04T22:41:30.552Z,17.50
2023-04-04T22:43:58.290Z,16.00
2023-04-04T22:46:26.781Z,14.50
2023-04-04T22:49:05.616Z,15.00
2023-04-04T22:51:45.607Z,17.67
2023-04-04T22:54:16.760Z,16.33
2023-04-04T22:56:44.745Z,19.00
2023-04-04T22:59:12.291Z,21.67
2023-04-04T23:01:40.712Z,12.00
2023-04-04T23:04:09.447Z,18.00
2023-04-04T23:06:38.541Z,19.67
2023-04-04T23:09:08.074Z,17.25
2023-04-04T23:11:36.176Z,18.00
2023-04-04T23:14:15.223Z,13.75
2023-04-04T23:16:44.519Z,18.00
2023-04-04T23:19:12.907Z,15.00
2023-04-04T23:21:40.643Z,23.33
2023-04-04T23:24:08.250Z,19.25
2023-04-04T23:26:35.786Z,19.33
2023-04-04T23:29:03.332Z,20.00
2023-04-04T23:31:31.323Z,19.33
2023-04-04T23:34:00.156Z,26.00
2023-04-04T23:36:27.720Z,19.25
2023-04-04T23:38:55.159Z,20.00
2023-04-04T23:41:23.430Z,18.25
2023-04-04T23:43:50.883Z,23.00
2023-04-04T23:46:20.012Z,20.00
2023-04-04T23:48:48.435Z,19.67
2023-04-04T23:51:19.479Z,6.50
2023-04-04T23:53:47.365Z,19.50
2023-04-04T23:56:14.781Z,20.00
2023-04-04T23:58:42.246Z,25.33
